sensor_id;sensor_type;location;lat;lon;timestamp;temperature;humidity
49765;DHT22;35657;51.204;-4.130;2023-04-25T00:01:13;9.10;99.90
49765;DHT22;35657;51.204;-4.130;2023-04-25T00:03:40;9.10;99.90
49765;DHT22;35657;51.204;-4.130;2023-04-25T00:06:06;9.30;99.90
49765;DHT22;35657;51.204;-4.130;2023-04-25T00:08:32;9.30;99.90
49765;DHT22;35657;51.204;-4.130;2023-04-25T00:10:58;9.30;99.90
49765;DHT22;35657;51.204;-4.130;2023-04-25T00:13:26;9.40;99.90
49765;DHT22;35657;51.204;-4.130;2023-04-25T00:15:52;9.30;99.90
49765;DHT22;35657;51.204;-4.130;2023-04-25T00:18:25;9.30;99.90
49765;DHT22;35657;51.204;-4.130;2023-04-25T00:20:54;9.30;99.90
49765;DHT22;35657;51.204;-4.130;2023-04-25T00:23:21;9.30;99.90
49765;DHT22;35657;51.204;-4.130;2023-04-25T00:25:48;9.30;99.90
49765;DHT22;35657;51.204;-4.130;2023-04-25T00:28:14;9.20;99.90
49765;DHT22;35657;51.204;-4.130;2023-04-25T00:30:41;9.20;99.90
49765;DHT22;35657;51.204;-4.130;2023-04-25T00:33:07;9.10;99.90
49765;DHT22;35657;51.204;-4.130;2023-04-25T00:35:33;9.10;99.90
49765;DHT22;35657;51.204;-4.130;2023-04-25T00:37:59;9.10;99.90
49765;DHT22;35657;51.204;-4.130;2023-04-25T00:40:25;9.00;99.90
49765;DHT22;35657;51.204;-4.130;2023-04-25T00:42:52;9.00;99.90
49765;DHT22;35657;51.204;-4.130;2023-04-25T00:45:18;9.00;99.90
49765;DHT22;35657;51.204;-4.130;2023-04-25T00:47:44;9.00;99.90
49765;DHT22;35657;51.204;-4.130;2023-04-25T00:50:11;9.00;99.90
49765;DHT22;35657;51.204;-4.130;2023-04-25T00:52:39;9.00;99.90
49765;DHT22;35657;51.204;-4.130;2023-04-25T00:55:06;9.00;99.90
49765;DHT22;35657;51.204;-4.130;2023-04-25T00:57:32;9.00;99.90
49765;DHT22;35657;51.204;-4.130;2023-04-25T00:59:59;8.90;99.90
49765;DHT22;35657;51.204;-4.130;2023-04-25T01:02:25;9.00;99.90
49765;DHT22;35657;51.204;-4.130;2023-04-25T01:04:52;8.90;99.90
49765;DHT22;35657;51.204;-4.130;2023-04-25T01:07:18;9.00;99.90
49765;DHT22;35657;51.204;-4.130;2023-04-25T01:09:45;9.00;99.90
49765;DHT22;35657;51.204;-4.130;2023-04-25T01:12:11;9.10;99.90
49765;DHT22;35657;51.204;-4.130;2023-04-25T01:14:38;9.10;99.90
49765;DHT22;35657;51.204;-4.130;2023-04-25T01:17:03;9.00;99.90
49765;DHT22;35657;51.204;-4.130;2023-04-25T01:19:29;9.00;99.90
49765;DHT22;35657;51.204;-4.130;2023-04-25T01:21:56;9.00;99.90
49765;DHT22;35657;51.204;-4.130;2023-04-25T01:24:22;9.00;99.90
49765;DHT22;35657;51.204;-4.130;2023-04-25T01:26:48;9.10;99.90
49765;DHT22;35657;51.204;-4.130;2023-04-25T01:29:19;9.10;99.90
49765;DHT22;35657;51.204;-4.130;2023-04-25T01:31:45;9.00;99.90
49765;DHT22;35657;51.204;-4.130;2023-04-25T01:34:12;9.10;99.90
49765;DHT22;35657;51.204;-4.130;2023-04-25T01:36:38;9.10;99.90
49765;DHT22;35657;51.204;-4.130;2023-04-25T01:39:04;9.10;99.90
49765;DHT22;35657;51.204;-4.130;2023-04-25T01:41:31;9.20;99.90
49765;DHT22;35657;51.204;-4.130;2023-04-25T01:43:57;9.30;99.90
49765;DHT22;35657;51.204;-4.130;2023-04-25T01:46:23;9.40;99.90
49765;DHT22;35657;51.204;-4.130;2023-04-25T01:48:49;9.40;99.90
49765;DHT22;35657;51.204;-4.130;2023-04-25T01:51:15;9.40;99.90
49765;DHT22;35657;51.204;-4.130;2023-04-25T01:53:41;9.40;99.90
49765;DHT22;35657;51.204;-4.130;2023-04-25T01:56:08;9.50;99.90
49765;DHT22;35657;51.204;-4.130;2023-04-25T01:58:33;9.50;99.90
49765;DHT22;35657;51.204;-4.130;2023-04-25T02:00:59;9.50;99.90
49765;DHT22;35657;51.204;-4.130;2023-04-25T02:03:25;9.50;99.90
49765;DHT22;35657;51.204;-4.130;2023-04-25T02:05:51;9.50;99.90
49765;DHT22;35657;51.204;-4.130;2023-04-25T02:08:17;9.40;99.90
49765;DHT22;35657;51.204;-4.130;2023-04-25T02:10:44;9.40;99.90
49765;DHT22;35657;51.204;-4.130;2023-04-25T02:13:09;9.30;99.90
49765;DHT22;35657;51.204;-4.130;2023-04-25T02:15:35;9.30;99.90
49765;DHT22;35657;51.204;-4.130;2023-04-25T02:18:01;9.20;99.90
49765;DHT22;35657;51.204;-4.130;2023-04-25T02:20:28;9.20;99.90
49765;DHT22;35657;51.204;-4.130;2023-04-25T02:22:54;9.20;99.90
49765;DHT22;35657;51.204;-4.130;2023-04-25T02:25:20;9.20;99.90
49765;DHT22;35657;51.204;-4.130;2023-04-25T02:27:47;9.20;99.90
49765;DHT22;35657;51.204;-4.130;2023-04-25T02:30:14;9.10;99.90
49765;DHT22;35657;51.204;-4.130;2023-04-25T02:32:40;9.10;99.90
49765;DHT22;35657;51.204;-4.130;2023-04-25T02:35:07;9.10;99.90
49765;DHT22;35657;51.204;-4.130;2023-04-25T02:37:34;9.10;99.90
49765;DHT22;35657;51.204;-4.130;2023-04-25T02:40:00;9.10;99.90
49765;DHT22;35657;51.204;-4.130;2023-04-25T02:42:26;9.10;99.90
49765;DHT22;35657;51.204;-4.130;2023-04-25T02:44:52;9.10;99.90
49765;DHT22;35657;51.204;-4.130;2023-04-25T02:47:17;9.00;99.90
49765;DHT22;35657;51.204;-4.130;2023-04-25T02:49:43;9.10;99.90
49765;DHT22;35657;51.204;-4.130;2023-04-25T02:52:09;9.00;99.90
49765;DHT22;35657;51.204;-4.130;2023-04-25T02:54:35;9.00;99.90
49765;DHT22;35657;51.204;-4.130;2023-04-25T02:57:00;9.00;99.90
49765;DHT22;35657;51.204;-4.130;2023-04-25T02:59:27;9.00;99.90
49765;DHT22;35657;51.204;-4.130;2023-04-25T03:01:53;9.10;99.90
49765;DHT22;35657;51.204;-4.130;2023-04-25T03:04:19;9.00;99.90
49765;DHT22;35657;51.204;-4.130;2023-04-25T03:06:46;9.00;99.90
49765;DHT22;35657;51.204;-4.130;2023-04-25T03:09:12;9.00;99.90
49765;DHT22;35657;51.204;-4.130;2023-04-25T03:11:38;9.00;99.90
49765;DHT22;35657;51.204;-4.130;2023-04-25T03:14:04;9.00;99.90
49765;DHT22;35657;51.204;-4.130;2023-04-25T03:16:30;9.00;99.90
49765;DHT22;35657;51.204;-4.130;2023-04-25T03:18:56;9.00;99.90
49765;DHT22;35657;51.204;-4.130;2023-04-25T03:21:22;8.90;99.90
49765;DHT22;35657;51.204;-4.130;2023-04-25T03:23:48;9.00;99.90
49765;DHT22;35657;51.204;-4.130;2023-04-25T03:26:14;9.00;99.90
49765;DHT22;35657;51.204;-4.130;2023-04-25T03:28:40;9.00;99.90
49765;DHT22;35657;51.204;-4.130;2023-04-25T03:31:05;8.80;99.90
49765;DHT22;35657;51.204;-4.130;2023-04-25T03:33:31;8.80;99.90
49765;DHT22;35657;51.204;-4.130;2023-04-25T03:35:57;8.60;99.90
49765;DHT22;35657;51.204;-4.130;2023-04-25T03:38:23;8.50;99.90
49765;DHT22;35657;51.204;-4.130;2023-04-25T03:40:51;8.50;99.90
49765;DHT22;35657;51.204;-4.130;2023-04-25T03:43:17;8.60;99.90
49765;DHT22;35657;51.204;-4.130;2023-04-25T03:45:42;8.60;99.90
49765;DHT22;35657;51.204;-4.130;2023-04-25T03:48:08;8.50;99.90
49765;DHT22;35657;51.204;-4.130;2023-04-25T03:50:34;8.60;99.90
49765;DHT22;35657;51.204;-4.130;2023-04-25T03:53:00;8.60;99.90
49765;DHT22;35657;51.204;-4.130;2023-04-25T03:55:26;8.60;99.90
49765;DHT22;35657;51.204;-4.130;2023-04-25T03:57:51;8.60;99.90
49765;DHT22;35657;51.204;-4.130;2023-04-25T04:00:17;8.50;99.90
49765;DHT22;35657;51.204;-4.130;2023-04-25T04:02:43;8.50;99.90
49765;DHT22;35657;51.204;-4.130;2023-04-25T04:05:09;8.50;99.90
49765;DHT22;35657;51.204;-4.130;2023-04-25T04:07:34;8.60;99.90
49765;DHT22;35657;51.204;-4.130;2023-04-25T04:10:06;8.60;99.90
49765;DHT22;35657;51.204;-4.130;2023-04-25T04:12:32;8.60;99.90
49765;DHT22;35657;51.204;-4.130;2023-04-25T04:14:57;8.60;99.90
49765;DHT22;35657;51.204;-4.130;2023-04-25T04:17:23;8.60;99.90
49765;DHT22;35657;51.204;-4.130;2023-04-25T04:19:49;8.60;99.90
49765;DHT22;35657;51.204;-4.130;2023-04-25T04:22:15;8.50;99.90
49765;DHT22;35657;51.204;-4.130;2023-04-25T04:24:41;8.50;99.90
49765;DHT22;35657;51.204;-4.130;2023-04-25T04:27:09;8.40;99.90
49765;DHT22;35657;51.204;-4.130;2023-04-25T04:29:35;8.20;99.90
49765;DHT22;35657;51.204;-4.130;2023-04-25T04:32:02;8.40;99.90
49765;DHT22;35657;51.204;-4.130;2023-04-25T04:34:28;8.40;99.90
49765;DHT22;35657;51.204;-4.130;2023-04-25T04:36:54;8.40;99.90
49765;DHT22;35657;51.204;-4.130;2023-04-25T04:39:20;8.50;99.90
49765;DHT22;35657;51.204;-4.130;2023-04-25T04:41:46;8.50;99.90
49765;DHT22;35657;51.204;-4.130;2023-04-25T04:44:12;8.50;99.90
49765;DHT22;35657;51.204;-4.130;2023-04-25T04:46:39;8.50;99.90
49765;DHT22;35657;51.204;-4.130;2023-04-25T04:49:06;8.40;99.90
49765;DHT22;35657;51.204;-4.130;2023-04-25T04:51:32;8.40;99.90
49765;DHT22;35657;51.204;-4.130;2023-04-25T04:53:58;8.40;99.90
49765;DHT22;35657;51.204;-4.130;2023-04-25T04:56:30;8.30;99.90
49765;DHT22;35657;51.204;-4.130;2023-04-25T04:58:59;8.30;99.90
49765;DHT22;35657;51.204;-4.130;2023-04-25T05:01:25;8.40;99.90
49765;DHT22;35657;51.204;-4.130;2023-04-25T05:03:52;8.50;99.90
49765;DHT22;35657;51.204;-4.130;2023-04-25T05:06:20;8.50;99.90
49765;DHT22;35657;51.204;-4.130;2023-04-25T05:08:46;8.50;99.90
49765;DHT22;35657;51.204;-4.130;2023-04-25T05:11:12;8.50;99.90
49765;DHT22;35657;51.204;-4.130;2023-04-25T05:13:37;8.50;99.90
49765;DHT22;35657;51.204;-4.130;2023-04-25T05:16:03;8.50;99.90
49765;DHT22;35657;51.204;-4.130;2023-04-25T05:18:29;8.50;99.90
49765;DHT22;35657;51.204;-4.130;2023-04-25T05:20:56;8.50;99.90
49765;DHT22;35657;51.204;-4.130;2023-04-25T05:23:21;8.50;99.90
49765;DHT22;35657;51.204;-4.130;2023-04-25T05:25:47;8.50;99.90
49765;DHT22;35657;51.204;-4.130;2023-04-25T05:28:13;8.40;99.90
49765;DHT22;35657;51.204;-4.130;2023-04-25T05:30:39;8.40;99.90
49765;DHT22;35657;51.204;-4.130;2023-04-25T05:33:05;8.40;99.90
49765;DHT22;35657;51.204;-4.130;2023-04-25T05:35:31;8.50;99.90
49765;DHT22;35657;51.204;-4.130;2023-04-25T05:37:56;8.40;99.90
49765;DHT22;35657;51.204;-4.130;2023-04-25T05:40:22;8.40;99.90
49765;DHT22;35657;51.204;-4.130;2023-04-25T05:42:48;8.30;99.90
49765;DHT22;35657;51.204;-4.130;2023-04-25T05:45:14;8.30;99.90
49765;DHT22;35657;51.204;-4.130;2023-04-25T05:47:39;8.30;99.90
49765;DHT22;35657;51.204;-4.130;2023-04-25T05:50:06;8.30;99.90
49765;DHT22;35657;51.204;-4.130;2023-04-25T05:52:32;8.40;99.90
49765;DHT22;35657;51.204;-4.130;2023-04-25T05:54:57;8.40;99.90
49765;DHT22;35657;51.204;-4.130;2023-04-25T05:57:25;8.30;99.90
49765;DHT22;35657;51.204;-4.130;2023-04-25T05:59:53;8.40;99.90
49765;DHT22;35657;51.204;-4.130;2023-04-25T06:02:20;8.30;99.90
49765;DHT22;35657;51.204;-4.130;2023-04-25T06:04:50;8.20;99.90
49765;DHT22;35657;51.204;-4.130;2023-04-25T06:07:16;8.20;99.90
49765;DHT22;35657;51.204;-4.130;2023-04-25T06:09:42;8.30;99.90
49765;DHT22;35657;51.204;-4.130;2023-04-25T06:12:08;8.30;99.90
49765;DHT22;35657;51.204;-4.130;2023-04-25T06:14:35;8.20;99.90
49765;DHT22;35657;51.204;-4.130;2023-04-25T06:17:01;8.10;99.90
49765;DHT22;35657;51.204;-4.130;2023-04-25T06:19:35;8.00;99.90
49765;DHT22;35657;51.204;-4.130;2023-04-25T06:22:02;7.90;99.90
49765;DHT22;35657;51.204;-4.130;2023-04-25T06:24:28;7.90;99.90
49765;DHT22;35657;51.204;-4.130;2023-04-25T06:26:54;7.90;99.90
49765;DHT22;35657;51.204;-4.130;2023-04-25T06:29:20;8.00;99.90
49765;DHT22;35657;51.204;-4.130;2023-04-25T06:31:46;8.30;99.90
49765;DHT22;35657;51.204;-4.130;2023-04-25T06:34:13;8.30;99.90
49765;DHT22;35657;51.204;-4.130;2023-04-25T06:36:39;8.40;99.90
49765;DHT22;35657;51.204;-4.130;2023-04-25T06:39:06;8.40;99.90
49765;DHT22;35657;51.204;-4.130;2023-04-25T06:41:32;8.40;99.90
49765;DHT22;35657;51.204;-4.130;2023-04-25T06:43:58;8.50;99.90
49765;DHT22;35657;51.204;-4.130;2023-04-25T06:46:24;8.40;99.90
49765;DHT22;35657;51.204;-4.130;2023-04-25T06:48:49;8.20;99.90
49765;DHT22;35657;51.204;-4.130;2023-04-25T06:51:15;8.30;99.90
49765;DHT22;35657;51.204;-4.130;2023-04-25T06:53:41;8.40;99.90
49765;DHT22;35657;51.204;-4.130;2023-04-25T06:56:07;8.30;99.90
49765;DHT22;35657;51.204;-4.130;2023-04-25T06:58:32;8.40;99.90
49765;DHT22;35657;51.204;-4.130;2023-04-25T07:00:58;8.40;99.90
49765;DHT22;35657;51.204;-4.130;2023-04-25T07:03:24;8.20;99.90
49765;DHT22;35657;51.204;-4.130;2023-04-25T07:05:50;8.20;99.90
49765;DHT22;35657;51.204;-4.130;2023-04-25T07:08:16;8.10;99.90
49765;DHT22;35657;51.204;-4.130;2023-04-25T07:10:42;8.00;99.90
49765;DHT22;35657;51.204;-4.130;2023-04-25T07:13:08;8.00;99.90
49765;DHT22;35657;51.204;-4.130;2023-04-25T07:15:33;8.00;99.90
49765;DHT22;35657;51.204;-4.130;2023-04-25T07:17:59;8.00;99.90
49765;DHT22;35657;51.204;-4.130;2023-04-25T07:20:25;8.10;99.90
49765;DHT22;35657;51.204;-4.130;2023-04-25T07:22:53;8.10;99.90
49765;DHT22;35657;51.204;-4.130;2023-04-25T07:25:19;8.20;99.90
49765;DHT22;35657;51.204;-4.130;2023-04-25T07:27:44;8.30;99.90
49765;DHT22;35657;51.204;-4.130;2023-04-25T07:30:10;8.30;99.90
49765;DHT22;35657;51.204;-4.130;2023-04-25T07:32:37;8.30;99.90
49765;DHT22;35657;51.204;-4.130;2023-04-25T07:35:04;8.40;99.90
49765;DHT22;35657;51.204;-4.130;2023-04-25T07:37:29;8.50;99.90
49765;DHT22;35657;51.204;-4.130;2023-04-25T07:39:55;8.50;99.90
49765;DHT22;35657;51.204;-4.130;2023-04-25T07:42:21;8.40;99.90
49765;DHT22;35657;51.204;-4.130;2023-04-25T07:44:47;8.40;99.90
49765;DHT22;35657;51.204;-4.130;2023-04-25T07:47:12;8.40;99.90
49765;DHT22;35657;51.204;-4.130;2023-04-25T07:49:39;8.50;99.90
49765;DHT22;35657;51.204;-4.130;2023-04-25T07:52:06;8.50;99.90
49765;DHT22;35657;51.204;-4.130;2023-04-25T07:54:31;8.60;99.90
49765;DHT22;35657;51.204;-4.130;2023-04-25T07:56:58;8.70;99.90
49765;DHT22;35657;51.204;-4.130;2023-04-25T07:59:24;8.70;99.90
49765;DHT22;35657;51.204;-4.130;2023-04-25T08:01:50;8.70;99.90
49765;DHT22;35657;51.204;-4.130;2023-04-25T08:04:16;8.80;99.90
49765;DHT22;35657;51.204;-4.130;2023-04-25T08:06:42;8.90;99.90
49765;DHT22;35657;51.204;-4.130;2023-04-25T08:09:08;8.90;99.90
49765;DHT22;35657;51.204;-4.130;2023-04-25T08:11:35;9.00;99.90
49765;DHT22;35657;51.204;-4.130;2023-04-25T08:14:01;9.10;99.90
49765;DHT22;35657;51.204;-4.130;2023-04-25T08:16:27;9.20;99.90
49765;DHT22;35657;51.204;-4.130;2023-04-25T08:18:53;9.20;99.90
49765;DHT22;35657;51.204;-4.130;2023-04-25T08:21:19;9.20;99.90
49765;DHT22;35657;51.204;-4.130;2023-04-25T08:23:45;9.30;99.90
49765;DHT22;35657;51.204;-4.130;2023-04-25T08:26:10;9.20;99.90
49765;DHT22;35657;51.204;-4.130;2023-04-25T08:28:36;9.30;99.90
49765;DHT22;35657;51.204;-4.130;2023-04-25T08:31:04;9.40;99.90
49765;DHT22;35657;51.204;-4.130;2023-04-25T08:33:29;9.40;99.90
49765;DHT22;35657;51.204;-4.130;2023-04-25T08:35:55;9.50;99.90
49765;DHT22;35657;51.204;-4.130;2023-04-25T08:38:21;9.70;99.90
49765;DHT22;35657;51.204;-4.130;2023-04-25T08:40:50;9.80;99.90
49765;DHT22;35657;51.204;-4.130;2023-04-25T08:43:19;10.00;99.90
49765;DHT22;35657;51.204;-4.130;2023-04-25T08:45:46;10.20;99.90
49765;DHT22;35657;51.204;-4.130;2023-04-25T08:48:13;10.30;99.90
49765;DHT22;35657;51.204;-4.130;2023-04-25T08:50:53;10.50;99.90
49765;DHT22;35657;51.204;-4.130;2023-04-25T08:53:32;10.60;99.90
49765;DHT22;35657;51.204;-4.130;2023-04-25T08:55:59;10.70;99.90
49765;DHT22;35657;51.204;-4.130;2023-04-25T08:58:27;10.80;99.90
49765;DHT22;35657;51.204;-4.130;2023-04-25T09:00:53;11.00;99.90
49765;DHT22;35657;51.204;-4.130;2023-04-25T09:03:19;11.10;99.90
49765;DHT22;35657;51.204;-4.130;2023-04-25T09:05:45;11.10;99.90
49765;DHT22;35657;51.204;-4.130;2023-04-25T09:08:11;11.20;99.90
49765;DHT22;35657;51.204;-4.130;2023-04-25T09:10:37;11.30;99.90
49765;DHT22;35657;51.204;-4.130;2023-04-25T09:13:07;11.30;99.90
49765;DHT22;35657;51.204;-4.130;2023-04-25T09:15:52;11.40;99.90
49765;DHT22;35657;51.204;-4.130;2023-04-25T09:18:27;11.70;99.90
49765;DHT22;35657;51.204;-4.130;2023-04-25T09:20:54;11.70;99.90
49765;DHT22;35657;51.204;-4.130;2023-04-25T09:23:21;12.00;99.90
49765;DHT22;35657;51.204;-4.130;2023-04-25T09:25:52;12.10;99.90
49765;DHT22;35657;51.204;-4.130;2023-04-25T09:28:26;12.20;99.90
49765;DHT22;35657;51.204;-4.130;2023-04-25T09:30:57;12.40;99.90
49765;DHT22;35657;51.204;-4.130;2023-04-25T09:33:30;12.60;99.90
49765;DHT22;35657;51.204;-4.130;2023-04-25T09:36:07;12.30;99.90
49765;DHT22;35657;51.204;-4.130;2023-04-25T09:38:44;11.50;99.90
49765;DHT22;35657;51.204;-4.130;2023-04-25T09:41:10;11.40;99.90
49765;DHT22;35657;51.204;-4.130;2023-04-25T09:43:37;11.60;99.90
49765;DHT22;35657;51.204;-4.130;2023-04-25T09:46:10;11.90;99.90
49765;DHT22;35657;51.204;-4.130;2023-04-25T09:48:36;11.90;99.90
49765;DHT22;35657;51.204;-4.130;2023-04-25T09:53:35;11.50;99.90
49765;DHT22;35657;51.204;-4.130;2023-04-25T09:56:04;11.60;99.90
49765;DHT22;35657;51.204;-4.130;2023-04-25T09:58:34;11.30;99.90
49765;DHT22;35657;51.204;-4.130;2023-04-25T10:01:05;11.50;99.90
49765;DHT22;35657;51.204;-4.130;2023-04-25T10:03:33;11.40;99.90
49765;DHT22;35657;51.204;-4.130;2023-04-25T10:06:05;11.50;99.90
49765;DHT22;35657;51.204;-4.130;2023-04-25T10:08:34;12.20;99.90
49765;DHT22;35657;51.204;-4.130;2023-04-25T10:11:07;12.50;99.90
49765;DHT22;35657;51.204;-4.130;2023-04-25T10:13:34;12.60;99.90
49765;DHT22;35657;51.204;-4.130;2023-04-25T10:16:04;13.10;99.90
49765;DHT22;35657;51.204;-4.130;2023-04-25T10:18:31;12.90;99.90
49765;DHT22;35657;51.204;-4.130;2023-04-25T10:21:02;12.50;99.90
49765;DHT22;35657;51.204;-4.130;2023-04-25T10:23:30;12.50;99.90
49765;DHT22;35657;51.204;-4.130;2023-04-25T10:25:57;12.30;99.90
49765;DHT22;35657;51.204;-4.130;2023-04-25T10:28:23;12.30;99.90
49765;DHT22;35657;51.204;-4.130;2023-04-25T10:31:03;12.20;99.90
49765;DHT22;35657;51.204;-4.130;2023-04-25T10:33:40;12.10;99.90
49765;DHT22;35657;51.204;-4.130;2023-04-25T10:36:17;11.90;99.90
49765;DHT22;35657;51.204;-4.130;2023-04-25T10:38:44;12.10;99.90
49765;DHT22;35657;51.204;-4.130;2023-04-25T10:41:10;12.10;99.90
49765;DHT22;35657;51.204;-4.130;2023-04-25T10:43:44;12.10;99.90
49765;DHT22;35657;51.204;-4.130;2023-04-25T10:46:26;11.90;99.90
49765;DHT22;35657;51.204;-4.130;2023-04-25T10:48:57;11.80;99.90
49765;DHT22;35657;51.204;-4.130;2023-04-25T10:58:47;11.80;99.90
49765;DHT22;35657;51.204;-4.130;2023-04-25T11:01:20;11.90;99.90
49765;DHT22;35657;51.204;-4.130;2023-04-25T11:03:46;11.80;99.90
49765;DHT22;35657;51.204;-4.130;2023-04-25T11:06:23;12.00;99.90
49765;DHT22;35657;51.204;-4.130;2023-04-25T11:08:52;12.00;99.90
49765;DHT22;35657;51.204;-4.130;2023-04-25T11:11:18;11.70;99.90
49765;DHT22;35657;51.204;-4.130;2023-04-25T11:13:48;11.60;99.90
49765;DHT22;35657;51.204;-4.130;2023-04-25T11:16:14;11.40;99.90
49765;DHT22;35657;51.204;-4.130;2023-04-25T11:18:43;11.40;99.90
49765;DHT22;35657;51.204;-4.130;2023-04-25T11:21:10;11.50;99.90
49765;DHT22;35657;51.204;-4.130;2023-04-25T11:23:36;11.40;99.90
49765;DHT22;35657;51.204;-4.130;2023-04-25T11:26:03;11.50;99.90
49765;DHT22;35657;51.204;-4.130;2023-04-25T11:28:29;11.60;99.90
49765;DHT22;35657;51.204;-4.130;2023-04-25T11:30:55;11.50;99.90
49765;DHT22;35657;51.204;-4.130;2023-04-25T11:33:25;11.60;99.90
49765;DHT22;35657;51.204;-4.130;2023-04-25T11:35:53;11.70;99.90
49765;DHT22;35657;51.204;-4.130;2023-04-25T11:38:20;11.90;99.90
49765;DHT22;35657;51.204;-4.130;2023-04-25T11:40:51;11.50;99.90
49765;DHT22;35657;51.204;-4.130;2023-04-25T11:43:18;11.10;99.90
49765;DHT22;35657;51.204;-4.130;2023-04-25T11:45:48;10.90;99.90
49765;DHT22;35657;51.204;-4.130;2023-04-25T11:48:14;11.00;99.90
49765;DHT22;35657;51.204;-4.130;2023-04-25T11:50:40;11.10;99.90
49765;DHT22;35657;51.204;-4.130;2023-04-25T11:53:06;11.20;99.90
49765;DHT22;35657;51.204;-4.130;2023-04-25T11:55:34;11.30;99.90
49765;DHT22;35657;51.204;-4.130;2023-04-25T11:58:00;11.30;99.90
49765;DHT22;35657;51.204;-4.130;2023-04-25T12:00:27;11.40;99.90
49765;DHT22;35657;51.204;-4.130;2023-04-25T12:02:54;11.40;99.90
49765;DHT22;35657;51.204;-4.130;2023-04-25T12:05:23;11.40;99.90
49765;DHT22;35657;51.204;-4.130;2023-04-25T12:07:48;11.30;99.90
49765;DHT22;35657;51.204;-4.130;2023-04-25T12:10:16;11.30;99.90
49765;DHT22;35657;51.204;-4.130;2023-04-25T12:12:43;11.40;99.90
49765;DHT22;35657;51.204;-4.130;2023-04-25T12:15:16;11.30;99.90
49765;DHT22;35657;51.204;-4.130;2023-04-25T12:17:49;11.30;99.90
49765;DHT22;35657;51.204;-4.130;2023-04-25T12:20:19;11.00;99.90
49765;DHT22;35657;51.204;-4.130;2023-04-25T12:22:46;11.10;99.90
49765;DHT22;35657;51.204;-4.130;2023-04-25T12:28:18;11.30;99.90
49765;DHT22;35657;51.204;-4.130;2023-04-25T12:31:05;11.10;99.90
49765;DHT22;35657;51.204;-4.130;2023-04-25T12:33:35;11.10;99.90
49765;DHT22;35657;51.204;-4.130;2023-04-25T12:36:02;11.00;99.90
49765;DHT22;35657;51.204;-4.130;2023-04-25T12:38:38;11.00;99.90
49765;DHT22;35657;51.204;-4.130;2023-04-25T12:41:04;11.30;99.90
49765;DHT22;35657;51.204;-4.130;2023-04-25T12:43:30;11.30;99.90
49765;DHT22;35657;51.204;-4.130;2023-04-25T12:45:56;11.40;99.90
49765;DHT22;35657;51.204;-4.130;2023-04-25T12:48:22;11.20;99.90
49765;DHT22;35657;51.204;-4.130;2023-04-25T12:50:49;11.30;99.90
49765;DHT22;35657;51.204;-4.130;2023-04-25T12:53:16;11.20;99.90
49765;DHT22;35657;51.204;-4.130;2023-04-25T12:55:42;11.00;99.90
49765;DHT22;35657;51.204;-4.130;2023-04-25T12:58:08;11.10;99.90
49765;DHT22;35657;51.204;-4.130;2023-04-25T13:00:34;11.10;99.90
49765;DHT22;35657;51.204;-4.130;2023-04-25T13:03:00;11.10;99.90
49765;DHT22;35657;51.204;-4.130;2023-04-25T13:05:26;11.10;99.90
49765;DHT22;35657;51.204;-4.130;2023-04-25T13:07:52;11.10;99.90
49765;DHT22;35657;51.204;-4.130;2023-04-25T13:10:17;11.10;99.90
49765;DHT22;35657;51.204;-4.130;2023-04-25T13:12:43;11.10;99.90
49765;DHT22;35657;51.204;-4.130;2023-04-25T13:15:09;11.20;99.90
49765;DHT22;35657;51.204;-4.130;2023-04-25T13:17:37;11.30;99.90
49765;DHT22;35657;51.204;-4.130;2023-04-25T13:20:05;11.20;99.90
49765;DHT22;35657;51.204;-4.130;2023-04-25T13:22:34;11.20;99.90
49765;DHT22;35657;51.204;-4.130;2023-04-25T13:25:02;11.20;99.90
49765;DHT22;35657;51.204;-4.130;2023-04-25T13:27:28;11.20;99.90
49765;DHT22;35657;51.204;-4.130;2023-04-25T13:29:54;11.40;99.90
49765;DHT22;35657;51.204;-4.130;2023-04-25T13:32:20;11.40;99.90
49765;DHT22;35657;51.204;-4.130;2023-04-25T13:34:47;11.40;99.90
49765;DHT22;35657;51.204;-4.130;2023-04-25T13:37:13;11.40;99.90
49765;DHT22;35657;51.204;-4.130;2023-04-25T13:39:39;11.40;99.90
49765;DHT22;35657;51.204;-4.130;2023-04-25T13:42:05;11.50;99.90
49765;DHT22;35657;51.204;-4.130;2023-04-25T13:44:30;11.50;99.90
49765;DHT22;35657;51.204;-4.130;2023-04-25T13:46:56;11.60;99.90
49765;DHT22;35657;51.204;-4.130;2023-04-25T13:49:21;11.60;99.90
49765;DHT22;35657;51.204;-4.130;2023-04-25T13:51:48;11.50;99.90
49765;DHT22;35657;51.204;-4.130;2023-04-25T13:54:14;11.40;99.90
49765;DHT22;35657;51.204;-4.130;2023-04-25T13:56:40;11.40;99.90
49765;DHT22;35657;51.204;-4.130;2023-04-25T13:59:07;11.40;99.90
49765;DHT22;35657;51.204;-4.130;2023-04-25T14:01:33;11.40;99.90
49765;DHT22;35657;51.204;-4.130;2023-04-25T14:04:01;11.40;99.90
49765;DHT22;35657;51.204;-4.130;2023-04-25T14:06:27;11.40;99.90
49765;DHT22;35657;51.204;-4.130;2023-04-25T14:08:53;11.50;99.90
49765;DHT22;35657;51.204;-4.130;2023-04-25T14:11:19;11.40;99.90
49765;DHT22;35657;51.204;-4.130;2023-04-25T14:13:45;11.40;99.90
49765;DHT22;35657;51.204;-4.130;2023-04-25T14:16:11;11.40;99.90
49765;DHT22;35657;51.204;-4.130;2023-04-25T14:18:37;11.40;99.90
49765;DHT22;35657;51.204;-4.130;2023-04-25T14:21:03;11.50;99.90
49765;DHT22;35657;51.204;-4.130;2023-04-25T14:23:28;11.60;99.90
49765;DHT22;35657;51.204;-4.130;2023-04-25T14:25:54;11.60;99.90
49765;DHT22;35657;51.204;-4.130;2023-04-25T14:28:20;11.60;99.90
49765;DHT22;35657;51.204;-4.130;2023-04-25T14:30:46;11.60;99.90
49765;DHT22;35657;51.204;-4.130;2023-04-25T14:33:11;11.60;99.90
49765;DHT22;35657;51.204;-4.130;2023-04-25T14:35:39;11.60;99.90
49765;DHT22;35657;51.204;-4.130;2023-04-25T14:38:05;11.60;99.90
49765;DHT22;35657;51.204;-4.130;2023-04-25T14:40:30;11.60;99.90
49765;DHT22;35657;51.204;-4.130;2023-04-25T14:42:56;11.60;99.90
49765;DHT22;35657;51.204;-4.130;2023-04-25T14:45:22;11.70;99.90
49765;DHT22;35657;51.204;-4.130;2023-04-25T14:47:47;11.70;99.90
49765;DHT22;35657;51.204;-4.130;2023-04-25T14:50:14;11.60;99.90
49765;DHT22;35657;51.204;-4.130;2023-04-25T14:52:40;11.50;99.90
49765;DHT22;35657;51.204;-4.130;2023-04-25T14:55:05;11.60;99.90
49765;DHT22;35657;51.204;-4.130;2023-04-25T14:57:34;11.60;99.90
49765;DHT22;35657;51.204;-4.130;2023-04-25T15:00:01;11.50;99.90
49765;DHT22;35657;51.204;-4.130;2023-04-25T15:02:28;11.40;99.90
49765;DHT22;35657;51.204;-4.130;2023-04-25T15:04:54;11.50;99.90
49765;DHT22;35657;51.204;-4.130;2023-04-25T15:07:21;11.40;99.90
49765;DHT22;35657;51.204;-4.130;2023-04-25T15:09:48;11.40;99.90
49765;DHT22;35657;51.204;-4.130;2023-04-25T15:12:14;11.40;99.90
49765;DHT22;35657;51.204;-4.130;2023-04-25T15:14:40;11.40;99.90
49765;DHT22;35657;51.204;-4.130;2023-04-25T15:17:05;11.30;99.90
49765;DHT22;35657;51.204;-4.130;2023-04-25T15:19:31;11.20;99.90
49765;DHT22;35657;51.204;-4.130;2023-04-25T15:21:58;11.10;99.90
49765;DHT22;35657;51.204;-4.130;2023-04-25T15:24:26;11.20;99.90
49765;DHT22;35657;51.204;-4.130;2023-04-25T15:26:52;11.20;99.90
49765;DHT22;35657;51.204;-4.130;2023-04-25T15:29:18;11.20;99.90
49765;DHT22;35657;51.204;-4.130;2023-04-25T15:31:44;11.20;99.90
49765;DHT22;35657;51.204;-4.130;2023-04-25T15:34:10;11.20;99.90
49765;DHT22;35657;51.204;-4.130;2023-04-25T15:36:36;11.10;99.90